createdAt,value
2017-11-16T00:00:20.069Z,28.3
2017-11-16T00:01:18.478Z,28.4
2017-11-16T00:02:18.488Z,28.4
2017-11-16T00:03:18.480Z,28.4
2017-11-16T00:04:18.580Z,28.3
2017-11-16T00:05:18.892Z,28.4
2017-11-16T00:06:20.281Z,28.4
2017-11-16T00:07:18.975Z,28.4
2017-11-16T00:08:20.342Z,28.4
2017-11-16T00:09:20.370Z,28.4
2017-11-16T00:10:19.142Z,28.4
2017-11-16T00:11:20.580Z,28.3
2017-11-16T00:12:20.616Z,28.4
2017-11-16T00:13:20.646Z,28.4
2017-11-16T00:14:21.055Z,28.4
2017-11-16T00:15:21.050Z,28.4
2017-11-16T00:16:19.235Z,28.4
2017-11-16T00:17:21.149Z,28.4
2017-11-16T00:18:20.939Z,28.4
2017-11-16T00:19:19.716Z,28.3
2017-11-16T00:20:19.819Z,28.4
2017-11-16T00:21:21.134Z,28.4
2017-11-16T00:22:21.504Z,28.4
2017-11-16T00:23:21.654Z,28.4
2017-11-16T00:24:21.701Z,28.4
2017-11-16T00:25:21.598Z,28.4
2017-11-16T00:26:21.411Z,28.3
2017-11-16T00:27:20.149Z,28.4
2017-11-16T00:28:20.132Z,28.4
2017-11-16T00:29:19.891Z,28.3
2017-11-16T00:30:20.001Z,28.3
2017-11-16T00:31:20.319Z,28.4
2017-11-16T00:32:22.008Z,28.3
2017-11-16T00:33:21.717Z,28.3
2017-11-16T00:34:21.734Z,28.3
2017-11-16T00:35:20.257Z,28.3
2017-11-16T00:36:20.299Z,28.3
2017-11-16T00:37:22.323Z,28.4
2017-11-16T00:38:21.994Z,28.4
2017-11-16T00:39:20.444Z,28.3
2017-11-16T00:40:20.695Z,28.4
2017-11-16T00:41:22.048Z,28.3
2017-11-16T00:42:20.866Z,28.4
2017-11-16T00:43:20.879Z,28.4
2017-11-16T00:44:22.192Z,28.3
2017-11-16T00:45:22.590Z,28.4
2017-11-16T00:46:20.683Z,28.4
2017-11-16T00:47:22.646Z,28.3
2017-11-16T00:48:20.721Z,28.4
2017-11-16T00:49:21.061Z,28.4
2017-11-16T00:50:20.865Z,28.4
2017-11-16T00:51:22.841Z,28.4
2017-11-16T00:52:22.923Z,28.4
2017-11-16T00:53:21.111Z,28.4
2017-11-16T00:54:23.034Z,28.3
2017-11-16T00:55:21.494Z,28.4
2017-11-16T00:56:21.239Z,28.3
2017-11-16T00:57:21.638Z,28.3
2017-11-16T00:58:23.297Z,28.3
2017-11-16T00:59:21.432Z,28.4
2017-11-16T01:00:21.742Z,28.4
2017-11-16T01:01:23.404Z,28.3
2017-11-16T01:02:21.903Z,28.4
2017-11-16T01:03:21.867Z,28.3
2017-11-16T01:04:21.946Z,28.3
2017-11-16T01:05:23.701Z,28.3
2017-11-16T01:06:23.384Z,28.3
2017-11-16T01:07:21.804Z,28.3
2017-11-16T01:08:23.467Z,28.3
2017-11-16T01:09:23.809Z,28.3
2017-11-16T01:10:23.493Z,28.3
2017-11-16T01:11:23.816Z,28.3
2017-11-16T01:12:21.953Z,28.3
2017-11-16T01:13:21.972Z,28.3
2017-11-16T01:14:22.003Z,28.3
2017-11-16T01:15:22.285Z,28.3
2017-11-16T01:16:22.286Z,28.3
2017-11-16T01:17:22.340Z,28.3
2017-11-16T01:18:23.968Z,28.3
2017-11-16T01:19:22.352Z,28.3
2017-11-16T01:20:22.125Z,28.3
2017-11-16T01:21:23.822Z,28.3
2017-11-16T01:22:24.143Z,28.3
2017-11-16T01:23:24.137Z,28.3
2017-11-16T01:24:23.858Z,28.3
2017-11-16T01:25:22.276Z,28.4
2017-11-16T01:26:22.283Z,28.3
2017-11-16T01:27:22.541Z,28.4
2017-11-16T01:28:22.614Z,28.4
2017-11-16T01:29:24.355Z,28.3
2017-11-16T01:30:24.306Z,28.3
2017-11-16T01:31:22.424Z,28.3
2017-11-16T01:32:24.108Z,28.3
2017-11-16T01:33:22.871Z,28.3
2017-11-16T01:34:24.256Z,28.4
2017-11-16T01:35:22.767Z,28.4
2017-11-16T01:36:24.412Z,28.4
2017-11-16T01:37:24.528Z,28.4
2017-11-16T01:38:22.967Z,28.3
2017-11-16T01:39:23.259Z,28.3
2017-11-16T01:40:24.969Z,28.3
2017-11-16T01:41:24.672Z,28.3
2017-11-16T01:42:23.464Z,28.3
2017-11-16T01:43:24.783Z,28.3
2017-11-16T01:44:23.531Z,28.3
2017-11-16T01:45:23.258Z,28.4
2017-11-16T01:46:23.282Z,28.3
2017-11-16T01:47:24.876Z,28.3
2017-11-16T01:48:25.263Z,28.3
2017-11-16T01:49:23.303Z,28.3
2017-11-16T01:50:24.956Z,28.3
2017-11-16T01:51:25.418Z,28.3
2017-11-16T01:52:23.518Z,28.3
2017-11-16T01:53:25.205Z,28.3
2017-11-16T01:54:25.632Z,28.3
2017-11-16T01:55:25.682Z,28.3
2017-11-16T01:56:25.430Z,28.3
2017-11-16T01:57:25.747Z,28.3
2017-11-16T01:58:23.852Z,28.3
2017-11-16T01:59:24.192Z,28.3
2017-11-16T02:00:26.641Z,28.3
2017-11-16T02:01:25.692Z,28.3
2017-11-16T02:02:25.726Z,28.3
2017-11-16T02:03:26.120Z,28.3
2017-11-16T02:04:26.148Z,28.3
2017-11-16T02:05:25.847Z,28.3
2017-11-16T02:06:25.856Z,28.3
2017-11-16T02:07:25.890Z,28.3
2017-11-16T02:08:25.892Z,28.3
2017-11-16T02:09:26.290Z,28.3
2017-11-16T02:10:24.367Z,28.3
2017-11-16T02:11:26.052Z,28.3
2017-11-16T02:12:26.378Z,28.3
2017-11-16T02:13:26.428Z,28.3
2017-11-16T02:14:26.477Z,28.3
2017-11-16T02:15:24.867Z,28.3
2017-11-16T02:16:24.653Z,28.3
2017-11-16T02:17:26.256Z,28.3
2017-11-16T02:18:26.733Z,28.3
2017-11-16T02:19:25.110Z,28.3
2017-11-16T02:20:25.198Z,28.3
2017-11-16T02:21:26.913Z,28.3
2017-11-16T02:22:25.272Z,28.3
2017-11-16T02:23:26.660Z,28.3
2017-11-16T02:24:26.641Z,28.3
2017-11-16T02:25:25.143Z,28.3
2017-11-16T02:26:25.455Z,28.3
2017-11-16T02:27:27.203Z,28.3
2017-11-16T02:28:25.596Z,28.1
2017-11-16T02:29:27.439Z,28.3
2017-11-16T02:30:27.114Z,28.3
2017-11-16T02:31:25.545Z,28.3
2017-11-16T02:32:25.835Z,28.3
2017-11-16T02:33:25.903Z,28.3
2017-11-16T02:34:27.605Z,28.3
2017-11-16T02:35:26.051Z,28.3
2017-11-16T02:36:25.806Z,28.3
2017-11-16T02:37:26.141Z,28.3
2017-11-16T02:38:25.911Z,28.3
2017-11-16T02:39:27.790Z,28.3
2017-11-16T02:40:27.894Z,28.3
2017-11-16T02:41:26.281Z,28.3
2017-11-16T02:42:27.682Z,28.3
2017-11-16T02:43:26.120Z,28.3
2017-11-16T02:44:26.103Z,28.3
2017-11-16T02:45:26.473Z,28.3
2017-11-16T02:46:28.175Z,28.3
2017-11-16T02:47:26.298Z,28.3
2017-11-16T02:48:28.017Z,28.3
2017-11-16T02:49:27.995Z,28.3
2017-11-16T02:50:28.030Z,28.3
2017-11-16T02:51:26.716Z,28.3
2017-11-16T02:52:28.447Z,28.3
2017-11-16T02:53:28.476Z,28.3
2017-11-16T02:54:28.148Z,28.3
2017-11-16T02:55:28.245Z,28.3
2017-11-16T02:56:28.691Z,28.3
2017-11-16T02:57:26.998Z,28.3
2017-11-16T02:58:27.078Z,28.3
2017-11-16T02:59:27.130Z,28.3
2017-11-16T03:00:28.479Z,28.3
2017-11-16T03:01:28.651Z,28.3
2017-11-16T03:02:28.908Z,28.3
2017-11-16T03:03:27.311Z,28.3
2017-11-16T03:04:27.090Z,28.3
2017-11-16T03:05:28.632Z,28.3
2017-11-16T03:06:27.415Z,28.3
2017-11-16T03:07:29.113Z,28.3
2017-11-16T03:08:27.218Z,28.3
2017-11-16T03:09:27.620Z,28.3
2017-11-16T03:10:29.031Z,28.3
2017-11-16T03:11:29.374Z,28.3
2017-11-16T03:12:29.161Z,28.3
2017-11-16T03:13:27.620Z,28.3
2017-11-16T03:14:27.913Z,28.3
2017-11-16T03:15:29.253Z,28.3
2017-11-16T03:16:29.311Z,28.3
2017-11-16T03:17:28.072Z,28.3
2017-11-16T03:18:29.331Z,28.3
2017-11-16T03:19:28.096Z,28.3
2017-11-16T03:20:28.084Z,28.3
2017-11-16T03:21:28.221Z,28.3
2017-11-16T03:22:27.923Z,28.3
2017-11-16T03:23:29.624Z,28.3
2017-11-16T03:24:29.991Z,28.3
2017-11-16T03:25:28.404Z,28.3
2017-11-16T03:26:30.131Z,28.3
2017-11-16T03:27:28.465Z,28.3
2017-11-16T03:28:29.820Z,28.3
2017-11-16T03:29:30.102Z,28.3
2017-11-16T03:30:29.914Z,28.3
2017-11-16T03:31:28.293Z,28.3
2017-11-16T03:32:30.036Z,28.3
2017-11-16T03:33:30.347Z,28.3
2017-11-16T03:34:28.456Z,28.3
2017-11-16T03:35:30.166Z,28.3
2017-11-16T03:36:30.505Z,28.3
2017-11-16T03:37:30.317Z,28.3
2017-11-16T03:38:29.015Z,28.3
2017-11-16T03:39:30.395Z,28.3
2017-11-16T03:40:29.161Z,28.3
2017-11-16T03:41:30.562Z,28.3
2017-11-16T03:42:29.018Z,28.3
2017-11-16T03:43:29.038Z,28.3
2017-11-16T03:44:30.693Z,28.3
2017-11-16T03:45:29.412Z,28.3
2017-11-16T03:46:29.523Z,28.3
2017-11-16T03:47:31.144Z,28.3
2017-11-16T03:48:29.551Z,28.3
2017-11-16T03:49:29.234Z,28.3
2017-11-16T03:50:29.338Z,28.3
2017-11-16T03:51:29.614Z,28.3
2017-11-16T03:52:29.388Z,28.3
2017-11-16T03:53:29.699Z,28.3
2017-11-16T03:54:31.083Z,28.3
2017-11-16T03:55:31.513Z,28.3
2017-11-16T03:56:29.648Z,28.3
2017-11-16T03:57:29.645Z,28.3
2017-11-16T03:58:29.750Z,28.3
2017-11-16T03:59:31.657Z,28.3
2017-11-16T04:00:30.084Z,28.3
2017-11-16T04:01:31.491Z,28.3
2017-11-16T04:02:30.237Z,28.3
2017-11-16T04:03:30.281Z,28.3
2017-11-16T04:04:31.628Z,28.3
2017-11-16T04:05:30.383Z,28.3
2017-11-16T04:06:32.090Z,28.3
2017-11-16T04:07:32.169Z,28.3
2017-11-16T04:08:30.597Z,28.3
2017-11-16T04:09:32.351Z,28.3
2017-11-16T04:10:30.688Z,28.3
2017-11-16T04:11:30.823Z,28.3
2017-11-16T04:12:30.910Z,28.3
2017-11-16T04:13:32.328Z,28.3
2017-11-16T04:14:32.716Z,28.3
2017-11-16T04:15:31.162Z,28.3
2017-11-16T04:16:32.828Z,28.3
2017-11-16T04:17:32.887Z,28.3
2017-11-16T04:18:32.585Z,28.3
2017-11-16T04:19:31.024Z,28.3
2017-11-16T04:20:31.139Z,28.3
2017-11-16T04:21:33.056Z,28.3
2017-11-16T04:22:32.806Z,28.3
2017-11-16T04:23:31.224Z,28.3
2017-11-16T04:24:31.312Z,28.3
2017-11-16T04:25:33.045Z,28.3
2017-11-16T04:26:33.160Z,28.3
2017-11-16T04:27:33.462Z,28.3
2017-11-16T04:28:31.905Z,28.3
2017-11-16T04:29:33.215Z,28.3
2017-11-16T04:30:31.836Z,28.3
2017-11-16T04:31:31.931Z,28.3
2017-11-16T04:32:31.933Z,28.3
2017-11-16T04:33:33.326Z,28.3
2017-11-16T04:34:33.694Z,28.3
2017-11-16T04:35:33.433Z,28.3
2017-11-16T04:36:33.741Z,28.3
2017-11-16T04:37:33.529Z,28.3
2017-11-16T04:38:33.561Z,28.3
2017-11-16T04:39:32.395Z,28.3
2017-11-16T04:40:34.121Z,28.3
2017-11-16T04:41:34.112Z,28.3
2017-11-16T04:42:34.222Z,28.3
2017-11-16T04:43:32.259Z,28.3
2017-11-16T04:44:33.952Z,28.3
2017-11-16T04:45:32.620Z,28.3
2017-11-16T04:46:33.971Z,28.3
2017-11-16T04:47:32.701Z,28.3
2017-11-16T04:48:32.493Z,28.3
2017-11-16T04:49:34.178Z,28.3
2017-11-16T04:50:32.946Z,28.3
2017-11-16T04:51:33.009Z,28.3
2017-11-16T04:52:34.414Z,28.3
2017-11-16T04:53:32.904Z,28.3
2017-11-16T04:54:34.868Z,28.3
2017-11-16T04:55:34.987Z,28.2
2017-11-16T04:56:35.009Z,28.3
2017-11-16T04:57:33.148Z,28.3
2017-11-16T04:58:35.073Z,28.3
2017-11-16T04:59:33.500Z,28.3
2017-11-16T05:00:33.275Z,28.3
2017-11-16T05:01:33.288Z,28.3
2017-11-16T05:02:35.218Z,28.3
2017-11-16T05:03:33.348Z,28.3
2017-11-16T05:04:33.459Z,28.3
2017-11-16T05:05:33.778Z,28.3
2017-11-16T05:06:35.484Z,28.3
2017-11-16T05:07:35.551Z,28.3
2017-11-16T05:08:35.288Z,28.3
2017-11-16T05:09:34.028Z,28.3
2017-11-16T05:10:33.840Z,28.3
2017-11-16T05:11:35.458Z,28.2
2017-11-16T05:12:35.484Z,28.3
2017-11-16T05:13:34.185Z,28.3
2017-11-16T05:14:33.980Z,28.2
2017-11-16T05:15:35.949Z,28.3
2017-11-16T05:16:36.066Z,28.3
2017-11-16T05:17:36.051Z,28.3
2017-11-16T05:18:34.261Z,28.3
2017-11-16T05:19:36.319Z,28.3
2017-11-16T05:20:36.341Z,28.3
2017-11-16T05:21:34.740Z,28.3
2017-11-16T05:22:34.740Z,28.2
2017-11-16T05:23:36.108Z,28.2
2017-11-16T05:24:34.817Z,28.3
2017-11-16T05:25:34.862Z,28.3
2017-11-16T05:26:36.247Z,28.3
2017-11-16T05:27:36.618Z,28.2
2017-11-16T05:28:36.625Z,28.2
2017-11-16T05:29:36.339Z,28.3
2017-11-16T05:30:34.777Z,28.2
2017-11-16T05:31:36.438Z,28.3
2017-11-16T05:32:35.174Z,28.2
2017-11-16T05:33:34.987Z,28.3
2017-11-16T05:34:36.920Z,28.3
2017-11-16T05:35:37.016Z,28.2
2017-11-16T05:36:36.704Z,28.2
2017-11-16T05:37:37.176Z,28.3
2017-11-16T05:38:36.737Z,28.3
2017-11-16T05:39:37.146Z,28.2
2017-11-16T05:40:35.825Z,28.3
2017-11-16T05:41:35.588Z,28.3
2017-11-16T05:42:35.623Z,28.3
2017-11-16T05:43:35.659Z,28.3
2017-11-16T05:44:37.063Z,28.4
2017-11-16T05:45:35.796Z,28.4
2017-11-16T05:46:37.490Z,28.3
2017-11-16T05:47:35.954Z,28.3
2017-11-16T05:48:37.656Z,28.3
2017-11-16T05:49:37.370Z,28.3
2017-11-16T05:50:37.764Z,28.3
2017-11-16T05:51:35.976Z,28.3
2017-11-16T05:52:37.925Z,28.4
2017-11-16T05:53:36.041Z,28.4
2017-11-16T05:54:36.399Z,28.4
2017-11-16T05:55:38.043Z,28.4
2017-11-16T05:56:36.437Z,28.4
2017-11-16T05:57:36.516Z,28.4
2017-11-16T05:58:38.160Z,28.4
2017-11-16T05:59:36.555Z,28.5
2017-11-16T06:00:38.308Z,28.5
2017-11-16T06:01:38.309Z,28.5
2017-11-16T06:02:38.363Z,28.5
2017-11-16T06:03:36.523Z,28.5
2017-11-16T06:04:36.676Z,28.5
2017-11-16T06:05:37.169Z,28.5
2017-11-16T06:06:38.386Z,28.5
2017-11-16T06:07:37.063Z,28.5
2017-11-16T06:08:38.746Z,28.5
2017-11-16T06:09:36.926Z,28.5
2017-11-16T06:10:36.959Z,28.6
2017-11-16T06:11:38.932Z,28.6
2017-11-16T06:12:36.983Z,28.6
2017-11-16T06:13:38.650Z,28.6
2017-11-16T06:14:37.104Z,28.6
2017-11-16T06:15:37.525Z,28.5
2017-11-16T06:16:37.523Z,28.5
2017-11-16T06:17:37.618Z,28.6
2017-11-16T06:18:38.957Z,28.6
2017-11-16T06:19:37.726Z,28.6
2017-11-16T06:20:37.449Z,28.6
2017-11-16T06:21:37.451Z,28.6
2017-11-16T06:22:39.117Z,28.6
2017-11-16T06:23:37.463Z,28.6
2017-11-16T06:24:37.568Z,28.5
2017-11-16T06:25:37.566Z,28.5
2017-11-16T06:26:37.610Z,28.5
2017-11-16T06:27:37.931Z,28.4
2017-11-16T06:28:39.601Z,28.4
2017-11-16T06:29:39.628Z,28.3
2017-11-16T06:30:37.836Z,28.3
2017-11-16T06:31:39.776Z,28.2
2017-11-16T06:32:39.996Z,28.2
2017-11-16T06:33:39.514Z,28.2
2017-11-16T06:34:38.035Z,28.2
2017-11-16T06:35:39.664Z,28.2
2017-11-16T06:36:38.142Z,28.1
2017-11-16T06:37:39.867Z,28.1
2017-11-16T06:38:38.304Z,28.1
2017-11-16T06:39:38.551Z,28.1
2017-11-16T06:40:40.298Z,28.1
2017-11-16T06:41:40.180Z,28.1
2017-11-16T06:42:39.907Z,28.1
2017-11-16T06:43:40.307Z,28.1
2017-11-16T06:44:38.417Z,28.1
2017-11-16T06:45:38.725Z,28.1
2017-11-16T06:46:38.814Z,28.2
2017-11-16T06:47:40.588Z,28.2
2017-11-16T06:48:40.277Z,28.3
2017-11-16T06:49:40.720Z,28.3
2017-11-16T06:50:39.055Z,28.4
2017-11-16T06:51:40.829Z,28.5
2017-11-16T06:52:38.924Z,28.5
2017-11-16T06:53:40.543Z,28.5
2017-11-16T06:54:40.859Z,28.6
2017-11-16T06:55:39.333Z,28.5
2017-11-16T06:56:39.099Z,28.4
2017-11-16T06:57:41.105Z,28.1
2017-11-16T06:58:40.808Z,27.9
2017-11-16T06:59:41.250Z,27.6
2017-11-16T07:00:41.261Z,27.2
2017-11-16T07:01:39.661Z,26.8
2017-11-16T07:02:39.700Z,26.5
2017-11-16T07:03:39.423Z,26.2
2017-11-16T07:04:41.400Z,26
2017-11-16T07:05:39.993Z,25.8
2017-11-16T07:06:41.285Z,25.7
2017-11-16T07:07:41.327Z,25.5
2017-11-16T07:08:41.786Z,25.4
2017-11-16T07:09:41.888Z,25.2
2017-11-16T07:10:40.037Z,25.1
2017-11-16T07:11:41.592Z,24.9
2017-11-16T07:12:40.197Z,24.9
2017-11-16T07:13:40.663Z,24.9
2017-11-16T07:14:42.349Z,24.7
2017-11-16T07:15:41.876Z,24.6
2017-11-16T07:16:40.624Z,24.6
2017-11-16T07:17:41.948Z,24.5
2017-11-16T07:18:42.212Z,24.4
2017-11-16T07:19:40.692Z,24.2
2017-11-16T07:20:42.051Z,24.1
2017-11-16T07:21:42.435Z,24
2017-11-16T07:22:40.706Z,23.9
2017-11-16T07:23:42.730Z,23.9
2017-11-16T07:24:41.005Z,23.8
2017-11-16T07:25:41.063Z,23.9
2017-11-16T07:26:42.613Z,23.8
2017-11-16T07:27:43.344Z,23.8
2017-11-16T07:28:42.790Z,23.9
2017-11-16T07:29:42.899Z,23.8
2017-11-16T07:30:41.698Z,23.7
2017-11-16T07:31:41.299Z,23.7
2017-11-16T07:32:41.072Z,23.7
2017-11-16T07:33:41.090Z,23.6
2017-11-16T07:34:41.283Z,23.6
2017-11-16T07:35:43.262Z,23.7
2017-11-16T07:36:41.299Z,23.7
2017-11-16T07:37:41.402Z,23.7
2017-11-16T07:38:43.322Z,23.8
2017-11-16T07:39:43.369Z,23.8
2017-11-16T07:40:41.807Z,23.8
2017-11-16T07:41:43.057Z,23.7
2017-11-16T07:42:41.784Z,23.7
2017-11-16T07:43:43.224Z,23.7
2017-11-16T07:44:41.474Z,23.8
2017-11-16T07:45:41.671Z,24
2017-11-16T07:46:43.666Z,24.2
2017-11-16T07:47:43.759Z,24.5
2017-11-16T07:48:42.308Z,24.7
2017-11-16T07:49:41.762Z,24.9
2017-11-16T07:50:41.803Z,25.1
2017-11-16T07:51:43.422Z,25.3
2017-11-16T07:52:42.337Z,25.5
2017-11-16T07:53:42.601Z,25.7
2017-11-16T07:54:46.411Z,25.9
2017-11-16T07:55:43.959Z,26
2017-11-16T07:56:42.421Z,26.2
2017-11-16T07:57:44.386Z,26.3
2017-11-16T07:58:42.499Z,26.5
2017-11-16T07:59:42.464Z,26.6
2017-11-16T08:02:00.765Z,26.8
2017-11-16T08:03:02.625Z,26.9
2017-11-16T08:04:01.949Z,27
2017-11-16T08:05:00.012Z,27.1
2017-11-16T08:06:00.076Z,27.2
2017-11-16T08:07:00.409Z,27.2
2017-11-16T08:08:01.898Z,27.3
2017-11-16T08:09:01.833Z,27.3
2017-11-16T08:10:00.789Z,27.4
2017-11-16T08:11:00.723Z,27.4
2017-11-16T08:12:00.744Z,27.5
2017-11-16T08:13:02.910Z,27.5
2017-11-16T08:14:00.866Z,27.5
2017-11-16T08:15:02.557Z,27.6
2017-11-16T08:16:02.350Z,27.7
2017-11-16T08:17:00.818Z,27.7
2017-11-16T08:18:01.208Z,27.8
2017-11-16T08:19:01.357Z,27.8
2017-11-16T08:20:02.933Z,27.9
2017-11-16T08:21:02.952Z,27.9
2017-11-16T08:22:03.100Z,27.9
2017-11-16T08:23:01.408Z,28
2017-11-16T08:24:03.157Z,28
2017-11-16T08:25:02.870Z,28
2017-11-16T08:26:01.546Z,28
2017-11-16T08:27:04.312Z,28
2017-11-16T08:28:01.812Z,28
2017-11-16T08:29:03.425Z,28.1
2017-11-16T08:30:01.487Z,28.1
2017-11-16T08:31:02.005Z,28.1
2017-11-16T08:32:13.553Z,28.2
2017-11-16T08:33:02.889Z,28
2017-11-16T08:34:04.240Z,28.2
2017-11-16T08:35:02.131Z,28.3
2017-11-16T08:36:05.821Z,28.3
2017-11-16T08:37:02.128Z,28.3
2017-11-16T08:38:03.885Z,28.4
2017-11-16T08:39:05.690Z,28.4
2017-11-16T08:40:06.087Z,28.4
2017-11-16T08:41:10.400Z,28.5
2017-11-16T08:42:02.736Z,28.5
2017-11-16T08:43:03.666Z,28.5
2017-11-16T08:44:02.290Z,28.5
2017-11-16T08:45:02.465Z,28.5
2017-11-16T08:46:02.547Z,28.5
2017-11-16T08:47:03.789Z,28.5
2017-11-16T08:48:03.930Z,28.5
2017-11-16T08:49:05.492Z,28.5
2017-11-16T08:50:04.195Z,28.6
2017-11-16T08:51:04.147Z,28.6
2017-11-16T08:52:04.786Z,28.6
2017-11-16T08:53:02.919Z,28.6
2017-11-16T08:54:03.201Z,28.6
2017-11-16T08:55:04.767Z,28.6
2017-11-16T08:56:03.189Z,28.6
2017-11-16T08:57:04.276Z,28.7
2017-11-16T08:58:04.945Z,28.7
2017-11-16T08:59:04.894Z,28.7
2017-11-16T09:00:04.984Z,28.7
2017-11-16T09:01:05.030Z,28.7
2017-11-16T09:02:04.687Z,28.7
2017-11-16T09:03:05.241Z,28.7
2017-11-16T09:04:05.031Z,28.7
2017-11-16T09:05:04.784Z,28.8
2017-11-16T09:06:03.631Z,28.8
2017-11-16T09:07:03.370Z,28.8
2017-11-16T09:08:03.621Z,28.8
2017-11-16T09:09:06.437Z,28.8
2017-11-16T09:10:05.793Z,28.9
2017-11-16T09:11:05.220Z,28.9
2017-11-16T09:12:03.863Z,28.9
2017-11-16T09:13:03.669Z,29
2017-11-16T09:14:05.162Z,29
2017-11-16T09:15:07.240Z,29
2017-11-16T09:16:05.822Z,29
2017-11-16T09:17:04.110Z,29.1
2017-11-16T09:18:03.792Z,29.1
2017-11-16T09:19:06.173Z,29.1
2017-11-16T09:20:05.672Z,29.1
2017-11-16T09:21:05.544Z,29.1
2017-11-16T09:22:09.194Z,29.1
2017-11-16T09:23:11.563Z,29.2
2017-11-16T09:24:08.160Z,29.2
2017-11-16T09:25:10.254Z,29.2
2017-11-16T09:26:05.599Z,29.2
2017-11-16T09:27:06.601Z,29.2
2017-11-16T09:28:05.007Z,29.2
2017-11-16T09:29:05.279Z,29.2
2017-11-16T09:30:07.775Z,29.3
2017-11-16T09:31:07.824Z,29.3
2017-11-16T09:32:07.563Z,29.4
2017-11-16T09:33:05.307Z,29.4
2017-11-16T09:34:07.563Z,29.5
2017-11-16T09:35:05.483Z,29.5
2017-11-16T09:36:05.436Z,29.5
2017-11-16T09:37:06.450Z,29.5
2017-11-16T09:38:12.428Z,29.6
2017-11-16T09:39:08.129Z,29.6
2017-11-16T09:40:10.937Z,29.6
2017-11-16T09:41:08.223Z,29.6
2017-11-16T09:42:07.670Z,29.6
2017-11-16T09:43:07.640Z,29.6
2017-11-16T09:44:08.232Z,29.6
2017-11-16T09:45:05.512Z,29.6
2017-11-16T09:46:06.409Z,29.6
2017-11-16T09:47:07.511Z,29.6
2017-11-16T09:48:07.999Z,29.6
2017-11-16T09:49:07.436Z,29.6
2017-11-16T09:50:05.945Z,29.6
2017-11-16T09:51:08.847Z,29.6
2017-11-16T09:52:08.023Z,29.6
2017-11-16T09:53:07.923Z,29.6
2017-11-16T09:54:07.953Z,29.6
2017-11-16T09:55:06.655Z,29.6
2017-11-16T09:56:06.207Z,29.6
2017-11-16T09:57:08.499Z,29.6
2017-11-16T09:58:06.979Z,29.6
2017-11-16T09:59:07.191Z,29.7
2017-11-16T10:00:08.497Z,29.7
2017-11-16T10:01:07.240Z,29.7
2017-11-16T10:02:09.349Z,29.8
2017-11-16T10:03:08.125Z,29.9
2017-11-16T10:04:08.435Z,29.9
2017-11-16T10:05:06.621Z,30
2017-11-16T10:06:06.704Z,30
2017-11-16T10:07:07.433Z,30.1
2017-11-16T10:08:09.583Z,30.1
2017-11-16T10:09:08.761Z,30.1
2017-11-16T10:10:07.003Z,30.1
2017-11-16T10:11:08.700Z,30.2
2017-11-16T10:12:06.878Z,30.2
2017-11-16T10:13:07.316Z,30.2
2017-11-16T10:14:06.982Z,30.3
2017-11-16T10:15:09.075Z,30.3
2017-11-16T10:16:08.766Z,30.3
2017-11-16T10:17:07.342Z,30.4
2017-11-16T10:18:07.662Z,30.5
2017-11-16T10:19:07.304Z,30.5
2017-11-16T10:20:09.355Z,30.6
2017-11-16T10:21:07.602Z,30.6
2017-11-16T10:22:07.395Z,30.6
2017-11-16T10:23:07.395Z,30.7
2017-11-16T10:24:07.548Z,30.8
2017-11-16T10:25:07.550Z,30.9
2017-11-16T10:26:09.364Z,31
2017-11-16T10:27:09.042Z,31
2017-11-16T10:28:09.238Z,31
2017-11-16T10:29:10.226Z,31
2017-11-16T10:30:09.888Z,31
2017-11-16T10:31:09.582Z,31
2017-11-16T10:32:09.027Z,31
2017-11-16T10:33:09.886Z,31
2017-11-16T10:34:08.261Z,31.1
2017-11-16T10:35:08.486Z,31.1
2017-11-16T10:36:08.814Z,31.1
2017-11-16T10:37:08.455Z,31.1
2017-11-16T10:38:08.227Z,31.2
2017-11-16T10:39:08.254Z,31.2
2017-11-16T10:40:08.479Z,31.3
2017-11-16T10:41:11.379Z,31.4
2017-11-16T10:42:10.499Z,31.4
2017-11-16T10:43:10.072Z,31.5
2017-11-16T10:44:10.074Z,31.5
2017-11-16T10:45:10.572Z,31.5
2017-11-16T10:46:08.806Z,31.5
2017-11-16T10:47:10.544Z,31.5
2017-11-16T10:48:09.001Z,31.5
2017-11-16T10:49:10.677Z,31.5
2017-11-16T10:50:08.751Z,31.5
2017-11-16T10:51:10.724Z,31.5
2017-11-16T10:52:10.468Z,31.5
2017-11-16T10:53:09.105Z,31.5
2017-11-16T10:54:10.592Z,31.5
2017-11-16T10:55:17.592Z,31.6
2017-11-16T10:56:15.197Z,31.6
2017-11-16T10:57:10.624Z,31.6
2017-11-16T10:58:09.164Z,31.6
2017-11-16T10:59:09.253Z,31.5
2017-11-16T11:00:10.108Z,31.5
2017-11-16T11:01:09.904Z,31.5
2017-11-16T11:02:11.224Z,31.5
2017-11-16T11:03:13.631Z,31.5
2017-11-16T11:04:17.900Z,31.5
2017-11-16T11:05:18.579Z,31.5
2017-11-16T11:06:18.416Z,31.4
2017-11-16T11:07:10.417Z,31.3
2017-11-16T11:08:09.793Z,31.3
2017-11-16T11:09:10.225Z,31.2
2017-11-16T11:10:23.662Z,31.1
2017-11-16T11:11:10.830Z,31.1
2017-11-16T11:12:16.138Z,31.1
2017-11-16T11:13:10.223Z,31
2017-11-16T11:14:11.593Z,31
2017-11-16T11:15:12.276Z,30.9
2017-11-16T11:16:21.878Z,30.9
2017-11-16T11:17:20.833Z,30.8
2017-11-16T11:18:19.871Z,30.8
2017-11-16T11:19:10.654Z,30.7
2017-11-16T11:20:10.462Z,30.7
2017-11-16T11:21:12.055Z,30.6
2017-11-16T11:22:12.323Z,30.6
2017-11-16T11:23:10.843Z,30.6
2017-11-16T11:24:11.380Z,30.6
2017-11-16T11:25:12.158Z,30.6
2017-11-16T11:26:10.512Z,30.6
2017-11-16T11:27:12.339Z,30.6
2017-11-16T11:28:11.066Z,30.6
2017-11-16T11:29:12.662Z,30.6
2017-11-16T11:30:10.768Z,30.6
2017-11-16T11:31:12.968Z,30.6
2017-11-16T11:32:12.587Z,30.6
2017-11-16T11:33:11.022Z,30.6
2017-11-16T11:34:14.100Z,30.6
2017-11-16T11:35:12.702Z,30.6
2017-11-16T11:36:11.528Z,30.6
2017-11-16T11:37:11.523Z,30.4
2017-11-16T11:38:13.023Z,30.6
2017-11-16T11:39:11.703Z,30.6
2017-11-16T11:40:13.333Z,30.6
2017-11-16T11:41:11.556Z,30.6
2017-11-16T11:42:13.246Z,30.6
2017-11-16T11:43:16.045Z,30.6
2017-11-16T11:44:11.744Z,30.6
2017-11-16T11:45:11.902Z,30.6
2017-11-16T11:46:12.066Z,30.6
2017-11-16T11:47:13.760Z,30.6
2017-11-16T11:48:12.221Z,30.6
2017-11-16T11:49:14.102Z,30.7
2017-11-16T11:50:12.050Z,30.7
2017-11-16T11:51:12.411Z,30.6
2017-11-16T11:52:14.248Z,30.6
2017-11-16T11:53:13.490Z,30.6
2017-11-16T11:54:12.882Z,30.6
2017-11-16T11:55:12.784Z,30.6
2017-11-16T11:56:14.627Z,30.6
2017-11-16T11:57:12.939Z,30.6
2017-11-16T11:58:14.775Z,30.6
2017-11-16T11:59:12.941Z,30.6
2017-11-16T12:00:12.937Z,30.6
2017-11-16T12:01:14.502Z,30.6
2017-11-16T12:02:13.205Z,30.6
2017-11-16T12:03:14.197Z,30.5
2017-11-16T12:04:13.375Z,30.5
2017-11-16T12:05:14.457Z,30.4
2017-11-16T12:06:12.904Z,30.4
2017-11-16T12:07:13.242Z,30.4
2017-11-16T12:08:15.152Z,30.3
2017-11-16T12:09:13.450Z,30.4
2017-11-16T12:10:15.219Z,30.4
2017-11-16T12:11:13.504Z,30.4
2017-11-16T12:12:14.686Z,30.4
2017-11-16T12:13:15.840Z,30.4
2017-11-16T12:14:13.372Z,30.4
2017-11-16T12:15:15.196Z,30.5
2017-11-16T12:16:15.524Z,30.5
2017-11-16T12:17:13.735Z,30.6
2017-11-16T12:18:13.873Z,30.7
2017-11-16T12:19:15.663Z,30.7
2017-11-16T12:20:13.655Z,30.7
2017-11-16T12:21:14.211Z,30.7
2017-11-16T12:22:15.817Z,30.7
2017-11-16T12:23:14.100Z,30.7
2017-11-16T12:24:16.260Z,30.7
2017-11-16T12:25:14.931Z,30.7
2017-11-16T12:26:14.151Z,30.8
2017-11-16T12:27:14.418Z,30.7
2017-11-16T12:28:14.520Z,30.8
2017-11-16T12:29:14.159Z,30.7
2017-11-16T12:30:14.446Z,30.8
2017-11-16T12:31:14.342Z,30.8
2017-11-16T12:32:14.292Z,30.8
2017-11-16T12:33:14.714Z,30.8
2017-11-16T12:34:14.529Z,30.9
2017-11-16T12:35:14.727Z,30.9
2017-11-16T12:36:14.495Z,30.9
2017-11-16T12:37:14.577Z,30.9
2017-11-16T12:38:14.782Z,30.9
2017-11-16T12:39:14.569Z,30.9
2017-11-16T12:40:16.231Z,30.9
2017-11-16T12:41:16.387Z,30.9
2017-11-16T12:42:15.056Z,30.9
2017-11-16T12:43:16.782Z,30.8
2017-11-16T12:44:16.936Z,30.8
2017-11-16T12:45:16.571Z,30.8
2017-11-16T12:46:17.093Z,30.7
2017-11-16T12:47:16.975Z,30.6
2017-11-16T12:48:16.020Z,30.6
2017-11-16T12:49:16.917Z,30.5
2017-11-16T12:50:15.862Z,30.5
2017-11-16T12:51:15.754Z,30.5
2017-11-16T12:52:16.978Z,30.5
2017-11-16T12:53:15.400Z,30.4
2017-11-16T12:54:17.524Z,30.4
2017-11-16T12:55:16.345Z,30.4
2017-11-16T12:56:15.518Z,30.5
2017-11-16T12:57:17.505Z,30.6
2017-11-16T12:58:17.214Z,30.6
2017-11-16T12:59:15.660Z,30.6
2017-11-16T13:00:17.186Z,30.7
2017-11-16T13:01:18.739Z,30.7
2017-11-16T13:02:16.407Z,30.7
2017-11-16T13:03:16.088Z,30.6
2017-11-16T13:04:17.903Z,30.6
2017-11-16T13:05:18.132Z,30.6
2017-11-16T13:06:16.595Z,30.6
2017-11-16T13:07:18.433Z,30.5
2017-11-16T13:08:17.956Z,30.5
2017-11-16T13:09:18.034Z,30.5
2017-11-16T13:10:17.016Z,30.5
2017-11-16T13:11:17.020Z,30.5
2017-11-16T13:12:16.603Z,30.6
2017-11-16T13:13:18.360Z,30.6
2017-11-16T13:14:16.606Z,30.6
2017-11-16T13:15:18.447Z,30.6
2017-11-16T13:16:18.740Z,30.6
2017-11-16T13:17:16.616Z,30.6
2017-11-16T13:18:18.536Z,30.6
2017-11-16T13:19:17.009Z,30.6
2017-11-16T13:20:16.916Z,30.6
2017-11-16T13:21:17.606Z,30.6
2017-11-16T13:22:18.443Z,30.6